createdAt,value
2018-04-01T00:01:47.433Z,29.10
2018-04-01T00:04:17.200Z,29.10
2018-04-01T00:06:47.271Z,29.10
2018-04-01T00:09:17.430Z,29.00
2018-04-01T00:11:47.701Z,29.00
2018-04-01T00:14:18.252Z,29.00
2018-04-01T00:16:48.848Z,29.00
2018-04-01T00:19:18.388Z,29.00
2018-04-01T00:21:50.157Z,29.00
2018-04-01T00:24:19.826Z,29.00
2018-04-01T00:26:49.836Z,29.10
2018-04-01T00:29:19.275Z,29.10
2018-04-01T00:31:49.876Z,29.10
2018-04-01T00:34:19.397Z,29.10
2018-04-01T00:36:50.479Z,29.00
2018-04-01T00:39:19.752Z,29.00
2018-04-01T00:41:50.171Z,29.10
2018-04-01T00:44:21.184Z,29.10
2018-04-01T00:46:50.623Z,29.10
2018-04-01T00:49:20.983Z,29.00
2018-04-01T00:51:51.130Z,29.10
2018-04-01T00:54:21.800Z,29.10
2018-04-01T00:56:52.548Z,29.00
2018-04-01T00:59:22.141Z,29.10
2018-04-01T01:01:52.063Z,29.10
2018-04-01T01:04:22.072Z,29.00
2018-04-01T01:06:52.183Z,29.00
2018-04-01T01:09:23.135Z,29.10
2018-04-01T01:11:52.665Z,29.10
2018-04-01T01:14:23.722Z,29.10
2018-04-01T01:16:53.823Z,29.10
2018-04-01T01:19:23.484Z,29.10
2018-04-01T01:21:53.569Z,29.10
2018-04-01T01:24:23.834Z,29.10
2018-04-01T01:26:54.141Z,29.10
2018-04-01T01:29:25.275Z,29.10
2018-04-01T01:31:54.712Z,29.10
2018-04-01T01:34:25.827Z,29.10
2018-04-01T01:36:55.157Z,29.10
2018-04-01T01:39:25.079Z,29.10
2018-04-01T01:41:55.536Z,29.10
2018-04-01T01:44:25.341Z,29.10
2018-04-01T01:46:55.830Z,29.10
2018-04-01T01:49:26.071Z,29.10
2018-04-01T01:51:56.871Z,29.10
2018-04-01T01:54:26.509Z,29.10
2018-04-01T01:56:56.415Z,29.10
2018-04-01T01:59:26.968Z,29.10
2018-04-01T02:01:56.735Z,29.10
2018-04-01T02:04:27.793Z,29.10
2018-04-01T02:06:57.863Z,29.10
2018-04-01T02:09:27.591Z,29.10
2018-04-01T02:11:57.854Z,29.10
2018-04-01T02:14:28.008Z,29.10
2018-04-01T02:16:58.088Z,29.10
2018-04-01T02:19:29.184Z,29.20
2018-04-01T02:21:58.739Z,29.10
2018-04-01T02:24:28.970Z,29.10
2018-04-01T02:26:59.128Z,29.10
2018-04-01T02:29:29.484Z,29.20
2018-04-01T02:32:00.644Z,29.20
2018-04-01T02:34:30.824Z,29.20
2018-04-01T02:37:00.172Z,29.20
2018-04-01T02:39:29.944Z,29.20
2018-04-01T02:42:00.184Z,29.20
2018-04-01T02:44:30.867Z,29.20
2018-04-01T02:47:01.237Z,29.20
2018-04-01T02:49:30.936Z,29.30
2018-04-01T02:52:01.769Z,29.30
2018-04-01T02:54:31.303Z,29.30
2018-04-01T02:57:01.550Z,29.30
2018-04-01T02:59:31.764Z,29.30
2018-04-01T03:02:02.679Z,29.30
2018-04-01T03:04:31.976Z,29.30
2018-04-01T03:07:03.440Z,29.30
2018-04-01T03:09:32.865Z,29.30
2018-04-01T03:12:02.927Z,29.30
2018-04-01T03:14:33.561Z,29.30
2018-04-01T03:17:03.165Z,29.30
2018-04-01T03:19:34.240Z,29.30
2018-04-01T03:22:04.436Z,29.30
2018-04-01T03:24:33.995Z,29.30
2018-04-01T03:27:04.046Z,29.30
2018-04-01T03:29:34.428Z,29.40
2018-04-01T03:32:05.181Z,29.40
2018-04-01T03:34:35.432Z,29.40
2018-04-01T03:37:05.755Z,29.40
2018-04-01T03:39:35.143Z,29.40
2018-04-01T03:42:05.606Z,29.40
2018-04-01T03:44:36.248Z,29.40
2018-04-01T03:47:06.539Z,29.40
2018-04-01T03:49:36.662Z,29.40
2018-04-01T03:52:06.727Z,29.40
2018-04-01T03:54:36.306Z,29.50
2018-04-01T03:57:05.657Z,29.50
2018-04-01T03:59:35.060Z,29.50
2018-04-01T04:02:04.716Z,29.50
2018-04-01T04:04:34.327Z,29.50
2018-04-01T04:07:04.172Z,29.50
2018-04-01T04:09:33.581Z,29.50
2018-04-01T04:12:03.247Z,29.50
2018-04-01T04:14:32.791Z,29.50
2018-04-01T04:17:02.297Z,29.50
2018-04-01T04:19:31.835Z,29.60
2018-04-01T04:22:01.420Z,29.60
2018-04-01T04:24:31.174Z,29.60
2018-04-01T04:27:01.097Z,29.60
2018-04-01T04:29:31.519Z,29.60
2018-04-01T04:32:00.805Z,29.60
2018-04-01T04:34:30.888Z,29.60
2018-04-01T04:37:00.260Z,29.60
2018-04-01T04:39:32.334Z,29.70
2018-04-01T04:42:02.631Z,29.60
2018-04-01T04:44:32.446Z,29.70
2018-04-01T04:47:02.056Z,29.70
2018-04-01T04:49:32.419Z,29.70
2018-04-01T04:52:01.928Z,29.70
2018-04-01T04:54:32.051Z,29.70
2018-04-01T04:57:02.224Z,29.70
2018-04-01T04:59:32.446Z,29.70
2018-04-01T05:02:03.300Z,29.70
2018-04-01T05:04:33.271Z,29.70
2018-04-01T05:07:02.819Z,29.70
2018-04-01T05:09:33.962Z,29.70
2018-04-01T05:12:03.426Z,29.70
2018-04-01T05:14:33.647Z,29.70
2018-04-01T05:17:04.858Z,29.70
2018-04-01T05:19:34.468Z,29.80
2018-04-01T05:22:06.207Z,29.80
2018-04-01T05:24:36.443Z,29.80
2018-04-01T05:27:05.686Z,29.80
2018-04-01T05:29:35.331Z,29.80
2018-04-01T05:32:05.209Z,29.80
2018-04-01T05:34:35.791Z,29.80
2018-04-01T05:37:05.506Z,29.80
2018-04-01T05:39:36.626Z,29.90
2018-04-01T05:42:07.731Z,29.90
2018-04-01T05:44:36.979Z,29.90
2018-04-01T05:47:07.311Z,29.90
2018-04-01T05:49:36.716Z,29.90
2018-04-01T05:52:06.898Z,29.90
2018-04-01T05:54:36.919Z,30.00
2018-04-01T05:57:07.543Z,30.00
2018-04-01T05:59:37.460Z,30.00
2018-04-01T06:02:07.352Z,30.00
2018-04-01T06:04:38.447Z,30.00
2018-04-01T06:07:09.111Z,30.00
2018-04-01T06:09:38.533Z,30.00
2018-04-01T06:12:07.847Z,30.00
2018-04-01T06:14:37.409Z,30.00
2018-04-01T06:17:07.719Z,30.00
2018-04-01T06:19:37.124Z,30.10
2018-04-01T06:22:07.548Z,30.10
2018-04-01T06:24:37.855Z,30.10
2018-04-01T06:27:08.507Z,30.10
2018-04-01T06:29:38.179Z,30.00
2018-04-01T06:32:07.782Z,30.10
2018-04-01T06:34:37.538Z,30.10
2018-04-01T06:37:08.199Z,30.10
2018-04-01T06:39:38.240Z,30.10
2018-04-01T06:42:08.157Z,30.10
2018-04-01T06:44:37.703Z,30.10
2018-04-01T06:47:08.161Z,30.10
2018-04-01T06:49:38.122Z,30.20
2018-04-01T06:52:09.124Z,30.20
2018-04-01T06:54:38.850Z,30.10
2018-04-01T06:57:08.256Z,30.20
2018-04-01T06:59:37.967Z,30.20
2018-04-01T07:02:09.419Z,30.20
2018-04-01T07:04:39.135Z,30.30
2018-04-01T07:07:09.555Z,30.30
2018-04-01T07:09:39.389Z,30.20
2018-04-01T07:12:09.843Z,30.30
2018-04-01T07:14:39.084Z,30.30
2018-04-01T07:17:08.283Z,30.30
2018-04-01T07:19:37.857Z,30.30
2018-04-01T07:22:07.778Z,30.30
2018-04-01T07:24:38.173Z,30.30
2018-04-01T07:27:08.532Z,30.30
2018-04-01T07:29:38.130Z,30.30
2018-04-01T07:32:08.651Z,30.30
2018-04-01T07:34:38.238Z,30.40
2018-04-01T07:37:08.380Z,30.40
2018-04-01T07:39:37.573Z,30.40
2018-04-01T07:42:07.358Z,30.40
2018-04-01T07:44:36.604Z,30.40
2018-04-01T07:47:06.644Z,30.40
2018-04-01T07:49:37.618Z,30.40
2018-04-01T07:52:07.087Z,30.40
2018-04-01T07:54:37.204Z,30.40
2018-04-01T07:57:07.763Z,30.40
2018-04-01T07:59:37.926Z,30.40
2018-04-01T08:02:08.905Z,30.50
2018-04-01T08:04:38.628Z,30.50
2018-04-01T08:07:08.364Z,30.50
2018-04-01T08:09:38.511Z,30.50
2018-04-01T08:12:09.936Z,30.50
2018-04-01T08:14:39.189Z,30.50
2018-04-01T08:17:09.166Z,30.50
2018-04-01T08:19:39.313Z,30.50
2018-04-01T08:22:09.469Z,30.50
2018-04-01T08:24:40.000Z,30.50
2018-04-01T08:27:11.006Z,30.50
2018-04-01T08:29:40.438Z,30.50
2018-04-01T08:32:11.044Z,30.60
2018-04-01T08:34:40.455Z,30.50
2018-04-01T08:37:10.719Z,30.60
2018-04-01T08:39:40.937Z,30.60
2018-04-01T08:42:12.266Z,30.60
2018-04-01T08:44:43.394Z,30.60
2018-04-01T08:47:12.932Z,30.60
2018-04-01T08:49:42.232Z,30.60
2018-04-01T08:52:12.525Z,30.60
2018-04-01T08:54:42.596Z,30.60
2018-04-01T08:57:12.660Z,30.60
2018-04-01T08:59:42.884Z,30.60
2018-04-01T09:02:13.747Z,30.60
2018-04-01T09:04:43.099Z,30.60
2018-04-01T09:07:13.376Z,30.60
2018-04-01T09:09:43.577Z,30.70
2018-04-01T09:12:14.764Z,30.60
2018-04-01T09:14:44.379Z,30.60
2018-04-01T09:17:14.531Z,30.70
2018-04-01T09:19:44.371Z,30.70
2018-04-01T09:22:15.340Z,30.70
2018-04-01T09:24:45.751Z,30.70
2018-04-01T09:27:15.431Z,30.70
2018-04-01T09:29:45.165Z,30.70
2018-04-01T09:32:17.143Z,30.80
2018-04-01T09:34:46.626Z,30.80
2018-04-01T09:37:17.050Z,30.80
2018-04-01T09:39:46.569Z,30.80
2018-04-01T09:42:18.186Z,30.80
2018-04-01T09:44:48.405Z,30.80
2018-04-01T09:47:18.439Z,30.80
2018-04-01T09:49:48.420Z,30.80
2018-04-01T09:52:17.740Z,30.80
2018-04-01T09:54:48.273Z,30.80
2018-04-01T09:57:18.286Z,30.80
2018-04-01T09:59:49.022Z,30.80
2018-04-01T10:02:20.083Z,30.80
2018-04-01T10:07:53.367Z,30.80
2018-04-01T10:10:24.191Z,30.80
2018-04-01T10:12:54.991Z,30.80
2018-04-01T10:15:25.860Z,30.80
2018-04-01T10:17:56.847Z,30.80
2018-04-01T10:20:28.471Z,30.90
2018-04-01T10:22:59.437Z,30.80
2018-04-01T10:25:32.966Z,30.90
2018-04-01T10:28:03.889Z,30.80
2018-04-01T10:30:34.909Z,30.90
2018-04-01T10:33:14.730Z,30.90
2018-04-01T10:35:45.610Z,30.80
2018-04-01T10:38:16.611Z,30.90
2018-04-01T10:40:47.668Z,30.90
2018-04-01T10:43:20.831Z,30.90
2018-04-01T10:45:52.404Z,30.90
2018-04-01T10:48:22.995Z,30.90
2018-04-01T10:50:53.927Z,30.90
2018-04-01T10:53:25.455Z,30.90
2018-04-01T10:55:56.225Z,30.90
2018-04-01T10:58:25.737Z,30.90
2018-04-01T11:00:56.522Z,30.90
2018-04-01T11:03:27.027Z,30.90
2018-04-01T11:05:56.233Z,30.90
2018-04-01T11:08:26.398Z,30.90
2018-04-01T11:10:55.895Z,30.90
2018-04-01T11:13:25.115Z,30.90
2018-04-01T11:15:54.300Z,30.90
2018-04-01T11:18:24.102Z,30.90
2018-04-01T11:20:54.412Z,30.90
2018-04-01T11:23:25.116Z,30.90
2018-04-01T11:25:56.327Z,30.90
2018-04-01T11:28:25.608Z,30.90
2018-04-01T11:30:55.528Z,30.90
2018-04-01T11:33:25.076Z,30.90
2018-04-01T11:35:56.533Z,30.90
2018-04-01T11:38:25.835Z,30.90
2018-04-01T11:40:55.856Z,30.90
2018-04-01T11:43:27.184Z,30.90
2018-04-01T11:45:56.504Z,30.90
2018-04-01T11:48:27.257Z,30.90
2018-04-01T11:50:56.562Z,30.90
2018-04-01T11:53:26.991Z,30.90
2018-04-01T11:55:58.207Z,30.90
2018-04-01T11:58:27.434Z,30.90
2018-04-01T12:00:57.363Z,30.90
2018-04-01T12:03:28.161Z,30.90
2018-04-01T12:05:58.067Z,30.90
2018-04-01T12:08:28.692Z,30.90
2018-04-01T12:10:59.363Z,30.90
2018-04-01T12:13:28.654Z,30.90
2018-04-01T12:15:58.678Z,30.90
2018-04-01T12:18:29.587Z,30.90
2018-04-01T12:20:59.226Z,30.90
2018-04-01T12:23:30.085Z,30.90
2018-04-01T12:25:59.459Z,30.90
2018-04-01T12:28:29.958Z,30.90
2018-04-01T12:31:00.406Z,30.90
2018-04-01T12:33:30.524Z,30.90
2018-04-01T12:36:01.237Z,30.90
2018-04-01T12:38:31.969Z,30.90
2018-04-01T12:41:01.273Z,30.90
2018-04-01T12:43:30.996Z,30.90
2018-04-01T12:46:01.088Z,30.90
2018-04-01T12:48:31.529Z,30.90
2018-04-01T12:51:01.546Z,30.90
2018-04-01T12:53:32.680Z,30.90
2018-04-01T12:56:02.248Z,30.90
2018-04-01T12:58:33.282Z,30.90
2018-04-01T13:01:02.739Z,30.90
2018-04-01T13:03:32.592Z,30.90
2018-04-01T13:06:02.991Z,30.90
2018-04-01T13:08:34.930Z,30.90
2018-04-01T13:11:04.755Z,30.80
2018-04-01T13:13:34.136Z,30.90
2018-04-01T13:16:03.623Z,30.90
2018-04-01T13:18:35.003Z,30.90
2018-04-01T13:21:04.507Z,30.90
2018-04-01T13:23:34.259Z,30.90
2018-04-01T13:26:04.737Z,30.90
2018-04-01T13:28:35.231Z,30.90
2018-04-01T13:31:04.987Z,30.80
2018-04-01T13:33:35.628Z,30.90
2018-04-01T13:36:05.165Z,30.80
2018-04-01T13:38:35.353Z,30.90
2018-04-01T13:41:05.387Z,30.80
2018-04-01T13:43:37.410Z,30.80
2018-04-01T13:46:06.732Z,30.80
2018-04-01T13:48:36.297Z,30.80
2018-04-01T13:51:07.312Z,30.80
2018-04-01T13:53:37.543Z,30.80
2018-04-01T13:56:06.861Z,30.80
2018-04-01T13:58:37.515Z,30.80
2018-04-01T14:01:07.370Z,30.80
2018-04-01T14:03:37.943Z,30.80
2018-04-01T14:06:07.337Z,30.80
2018-04-01T14:08:37.742Z,30.80
2018-04-01T14:11:08.647Z,30.80
2018-04-01T14:13:37.983Z,30.80
2018-04-01T14:16:09.311Z,30.70
2018-04-01T14:18:39.429Z,30.70
2018-04-01T14:21:09.643Z,30.80
2018-04-01T14:23:39.900Z,30.80
2018-04-01T14:26:09.243Z,30.70
2018-04-01T14:28:41.073Z,30.80
2018-04-01T14:31:10.395Z,30.70
2018-04-01T14:33:39.609Z,30.80
2018-04-01T14:36:10.728Z,30.70
2018-04-01T14:38:40.194Z,30.80
2018-04-01T14:41:11.205Z,30.70
2018-04-01T14:43:40.526Z,30.70
2018-04-01T14:46:10.610Z,30.70
2018-04-01T14:48:40.918Z,30.70
2018-04-01T14:51:11.651Z,30.70
2018-04-01T14:53:41.461Z,30.70
2018-04-01T14:56:11.714Z,30.70
2018-04-01T14:58:42.503Z,30.70
2018-04-01T15:01:13.079Z,30.70
2018-04-01T15:03:42.376Z,30.70
2018-04-01T15:06:13.028Z,30.70
2018-04-01T15:08:42.819Z,30.60
2018-04-01T15:11:13.448Z,30.70
2018-04-01T15:13:43.042Z,30.70
2018-04-01T15:16:14.102Z,30.70
2018-04-01T15:18:44.373Z,30.70
2018-04-01T15:21:14.980Z,30.70
2018-04-01T15:23:44.706Z,30.70
2018-04-01T15:26:14.932Z,30.70
2018-04-01T15:28:44.730Z,30.70
2018-04-01T15:31:14.642Z,30.70
2018-04-01T15:33:45.755Z,30.70
2018-04-01T15:36:16.218Z,30.70
2018-04-01T15:38:45.730Z,30.70
2018-04-01T15:41:16.013Z,30.70
2018-04-01T15:43:45.751Z,30.60
2018-04-01T15:46:16.312Z,30.70
2018-04-01T15:48:47.294Z,30.70
2018-04-01T15:51:18.967Z,30.60
2018-04-01T15:53:49.380Z,30.70
2018-04-01T15:56:19.087Z,30.60
2018-04-01T15:58:48.356Z,30.60
2018-04-01T16:01:18.617Z,30.60
2018-04-01T16:03:49.045Z,30.60
2018-04-01T16:06:19.282Z,30.60
2018-04-01T16:08:49.610Z,30.60
2018-04-01T16:11:19.292Z,30.60
2018-04-01T16:13:48.610Z,30.60
2018-04-01T16:16:19.483Z,30.60
2018-04-01T16:18:48.875Z,30.60
2018-04-01T16:21:18.124Z,30.60
2018-04-01T16:23:47.600Z,30.60
2018-04-01T16:26:16.989Z,30.50
2018-04-01T16:28:47.764Z,30.50
2018-04-01T16:31:18.051Z,30.50
2018-04-01T16:33:47.632Z,30.50
2018-04-01T16:36:16.951Z,30.50
2018-04-01T16:38:46.512Z,30.50
2018-04-01T16:41:16.975Z,30.50
2018-04-01T16:43:46.535Z,30.50
2018-04-01T16:46:16.207Z,30.50
2018-04-01T16:48:45.691Z,30.50
2018-04-01T16:51:15.092Z,30.50
2018-04-01T16:53:44.559Z,30.40
2018-04-01T16:56:14.856Z,30.40
2018-04-01T16:58:44.527Z,30.40
2018-04-01T17:01:14.097Z,30.40
2018-04-01T17:03:43.540Z,30.40
2018-04-01T17:06:12.939Z,30.40
2018-04-01T17:08:43.535Z,30.40
2018-04-01T17:11:13.149Z,30.40
2018-04-01T17:13:44.311Z,30.40
2018-04-01T17:16:14.706Z,30.40
2018-04-01T17:18:44.076Z,30.40
2018-04-01T17:21:14.990Z,30.40
2018-04-01T17:23:44.285Z,30.40
2018-04-01T17:26:14.516Z,30.40
2018-04-01T17:28:45.617Z,30.40
2018-04-01T17:31:15.625Z,30.40
2018-04-01T17:33:45.744Z,30.40
2018-04-01T17:36:15.909Z,30.40
2018-04-01T17:38:46.611Z,30.30
2018-04-01T17:41:16.699Z,30.30
2018-04-01T17:43:46.017Z,30.30
2018-04-01T17:46:16.326Z,30.30
2018-04-01T17:48:47.396Z,30.30
2018-04-01T17:51:16.759Z,30.30
2018-04-01T17:53:47.262Z,30.30
2018-04-01T17:56:17.535Z,30.30
2018-04-01T17:58:47.824Z,30.30
2018-04-01T18:01:18.159Z,30.30
2018-04-01T18:03:47.671Z,30.30
2018-04-01T18:06:17.756Z,30.30
2018-04-01T18:08:48.678Z,30.30
2018-04-01T18:11:19.633Z,30.30
2018-04-01T18:13:49.199Z,30.30
2018-04-01T18:16:20.090Z,30.20
2018-04-01T18:18:49.851Z,30.20
2018-04-01T18:21:20.943Z,30.20
2018-04-01T18:23:50.607Z,30.20
2018-04-01T18:26:20.240Z,30.20
2018-04-01T18:28:49.540Z,30.20
2018-04-01T18:31:20.583Z,30.20
2018-04-01T18:36:24.226Z,30.10
2018-04-01T18:38:53.737Z,30.20
2018-04-01T18:41:22.927Z,30.20
2018-04-01T18:43:52.277Z,30.20
2018-04-01T18:46:22.514Z,30.20
2018-04-01T18:48:53.090Z,30.20
2018-04-01T18:51:22.303Z,30.10
2018-04-01T18:53:52.611Z,30.10
2018-04-01T18:56:21.798Z,30.10
2018-04-01T18:58:52.596Z,30.10
2018-04-01T19:01:22.600Z,30.10
2018-04-01T19:03:52.656Z,30.10
2018-04-01T19:06:23.438Z,30.10
2018-04-01T19:08:54.178Z,30.10
2018-04-01T19:11:24.528Z,30.10
2018-04-01T19:13:54.694Z,30.10
2018-04-01T19:16:25.558Z,30.10
2018-04-01T19:18:56.070Z,30.10
2018-04-01T19:21:26.523Z,30.10
2018-04-01T19:23:57.303Z,30.10
2018-04-01T19:26:28.215Z,30.10
2018-04-01T19:28:59.839Z,30.10
2018-04-01T19:31:30.626Z,30.10
2018-04-01T19:34:01.488Z,30.10
2018-04-01T19:36:32.359Z,30.10
2018-04-01T19:39:04.137Z,30.00
2018-04-01T19:41:35.770Z,30.00
2018-04-01T19:44:07.443Z,30.00
2018-04-01T19:46:39.261Z,30.00
2018-04-01T19:49:10.294Z,30.00
2018-04-01T19:51:41.155Z,30.00
2018-04-01T19:54:11.976Z,30.00
2018-04-01T19:56:42.963Z,30.00
2018-04-01T19:59:13.845Z,30.00
2018-04-01T20:01:44.727Z,30.00
2018-04-01T20:04:15.528Z,30.00
2018-04-01T20:06:46.186Z,30.00
2018-04-01T20:09:17.560Z,30.00
2018-04-01T20:11:48.393Z,30.00
2018-04-01T20:14:20.771Z,29.90
2018-04-01T20:16:51.740Z,29.90
2018-04-01T20:19:23.744Z,29.90
2018-04-01T20:21:55.186Z,29.90
2018-04-01T20:24:26.800Z,29.90
2018-04-01T20:26:57.819Z,29.90
2018-04-01T20:29:28.630Z,29.90
2018-04-01T20:32:00.584Z,29.90
2018-04-01T20:34:32.890Z,29.80
2018-04-01T20:37:03.355Z,29.80
2018-04-01T20:39:33.976Z,29.80
2018-04-01T20:42:04.758Z,29.80
2018-04-01T20:44:36.454Z,29.80
2018-04-01T20:47:07.327Z,29.80
2018-04-01T20:49:38.891Z,29.80
2018-04-01T20:52:09.754Z,29.80
2018-04-01T20:54:41.511Z,29.80
2018-04-01T20:57:13.995Z,29.80
2018-04-01T20:59:44.711Z,29.80
2018-04-01T21:02:16.247Z,29.70
2018-04-01T21:04:47.124Z,29.80
2018-04-01T21:07:18.228Z,29.80
2018-04-01T21:09:49.065Z,29.80
2018-04-01T21:12:19.763Z,29.70
2018-04-01T21:14:50.682Z,29.70
2018-04-01T21:17:21.501Z,29.70
2018-04-01T21:19:53.260Z,29.70
2018-04-01T21:22:24.052Z,29.70
2018-04-01T21:24:54.865Z,29.70
2018-04-01T21:27:26.307Z,29.70
2018-04-01T21:29:57.155Z,29.70
2018-04-01T21:32:28.667Z,29.70
2018-04-01T21:35:01.179Z,29.70
2018-04-01T21:37:32.001Z,29.70
2018-04-01T21:40:02.817Z,29.70
2018-04-01T21:42:33.412Z,29.60
2018-04-01T21:45:04.295Z,29.60
2018-04-01T21:47:35.042Z,29.60
2018-04-01T21:50:05.886Z,29.60
2018-04-01T21:52:37.225Z,29.60
2018-04-01T21:55:09.172Z,29.60
2018-04-01T21:57:39.760Z,29.60
2018-04-01T22:00:10.959Z,29.60
2018-04-01T22:02:41.654Z,29.60
2018-04-01T22:05:12.601Z,29.60
2018-04-01T22:07:45.505Z,29.60
2018-04-01T22:10:16.227Z,29.60
2018-04-01T22:12:47.967Z,29.60
2018-04-01T22:15:19.849Z,29.60
2018-04-01T22:17:51.670Z,29.60
2018-04-01T22:20:22.213Z,29.60
2018-04-01T22:23:03.699Z,29.50
2018-04-01T22:25:34.769Z,29.50
2018-04-01T22:28:05.240Z,29.50
2018-04-01T22:30:36.022Z,29.50
2018-04-01T22:33:07.616Z,29.50
2018-04-01T22:35:38.598Z,29.50
2018-04-01T22:38:09.646Z,29.50
2018-04-01T22:40:41.296Z,29.50
2018-04-01T22:43:13.370Z,29.50
2018-04-01T22:45:45.172Z,29.50
2018-04-01T22:48:17.018Z,29.50
2018-04-01T22:50:48.040Z,29.50
2018-04-01T22:53:19.953Z,29.50
2018-04-01T22:55:50.771Z,29.50
2018-04-01T22:58:22.178Z,29.50
2018-04-01T23:00:55.017Z,29.50
2018-04-01T23:03:26.543Z,29.50
2018-04-01T23:05:57.543Z,29.40
2018-04-01T23:08:29.143Z,29.40
2018-04-01T23:11:00.103Z,29.40
2018-04-01T23:13:30.979Z,29.40
2018-04-01T23:16:02.639Z,29.40
2018-04-01T23:18:34.290Z,29.40
2018-04-01T23:21:06.719Z,29.40
2018-04-01T23:23:37.360Z,29.40
2018-04-01T23:26:08.224Z,29.40
2018-04-01T23:28:39.479Z,29.40
2018-04-01T23:31:11.211Z,29.40
2018-04-01T23:33:42.101Z,29.40
2018-04-01T23:36:13.011Z,29.40
2018-04-01T23:38:44.673Z,29.40
2018-04-01T23:41:16.322Z,29.40
2018-04-01T23:43:48.698Z,29.40
2018-04-01T23:46:20.524Z,29.40
2018-04-01T23:48:52.013Z,29.40
2018-04-01T23:51:23.723Z,29.40
2018-04-01T23:53:55.360Z,29.40
2018-04-01T23:56:26.135Z,29.40
2018-04-01T23:58:56.915Z,29.40
